Lake Peekskill, New York
Current Conditions -  °F | °C
As of 12:45 PM on Sunday 28 Dec 2014 (Local Time) from KSWF Reporting Station
Broken Clouds Broken Clouds  
Wind Chill: 44°   Ceiling: 2000
Heat Index: 48°   Visibility: 20mi
Dew Point: 45°   Wind: 9mph
Humidity: 87%   Direction: 270°W
Pressure: 29.88"   Gusts: NA
Location:  41.33°N, 73.88°W
Report Text: KSWF 281745Z 27008KT 20SM BKN020 BKN050 09/07 A2988
Loading
Personal Weather Stations






























Interactive Weather Map New forecast layout! Learn more

10-Day Weather Forecast

Advertisements
Track Severe Weather on mobile